sensor_id;sensor_type;location;lat;lon;timestamp;P1;durP1;ratioP1;P2;durP2;ratioP2
11510;SDS011;5812;48.864;9.190;2023-01-29T00:01:05;4.77;;;4.77;;
11510;SDS011;5812;48.864;9.190;2023-01-29T00:03:32;5.00;;;5.00;;
11510;SDS011;5812;48.864;9.190;2023-01-29T00:05:58;3.90;;;3.90;;
11510;SDS011;5812;48.864;9.190;2023-01-29T00:08:24;8.57;;;8.57;;
11510;SDS011;5812;48.864;9.190;2023-01-29T00:10:51;5.63;;;5.63;;
11510;SDS011;5812;48.864;9.190;2023-01-29T00:13:16;4.57;;;4.57;;
11510;SDS011;5812;48.864;9.190;2023-01-29T00:15:42;3.93;;;3.93;;
11510;SDS011;5812;48.864;9.190;2023-01-29T00:18:17;4.67;;;4.67;;
11510;SDS011;5812;48.864;9.190;2023-01-29T00:20:43;4.23;;;4.23;;
11510;SDS011;5812;48.864;9.190;2023-01-29T00:23:08;5.07;;;5.07;;
11510;SDS011;5812;48.864;9.190;2023-01-29T00:25:34;5.20;;;5.20;;
11510;SDS011;5812;48.864;9.190;2023-01-29T00:27:59;4.47;;;4.47;;
11510;SDS011;5812;48.864;9.190;2023-01-29T00:30:25;4.27;;;4.27;;
11510;SDS011;5812;48.864;9.190;2023-01-29T00:32:50;4.67;;;4.67;;
11510;SDS011;5812;48.864;9.190;2023-01-29T00:35:17;4.57;;;4.57;;
11510;SDS011;5812;48.864;9.190;2023-01-29T00:37:43;4.63;;;4.63;;
11510;SDS011;5812;48.864;9.190;2023-01-29T00:40:09;4.60;;;4.60;;
11510;SDS011;5812;48.864;9.190;2023-01-29T00:42:35;4.33;;;4.33;;
11510;SDS011;5812;48.864;9.190;2023-01-29T00:45:19;4.23;;;4.23;;
11510;SDS011;5812;48.864;9.190;2023-01-29T00:47:44;3.97;;;3.97;;
11510;SDS011;5812;48.864;9.190;2023-01-29T00:50:10;4.13;;;4.13;;
11510;SDS011;5812;48.864;9.190;2023-01-29T00:52:36;4.23;;;4.23;;
11510;SDS011;5812;48.864;9.190;2023-01-29T00:55:04;4.20;;;4.20;;
11510;SDS011;5812;48.864;9.190;2023-01-29T00:57:31;4.00;;;4.00;;
11510;SDS011;5812;48.864;9.190;2023-01-29T00:59:58;4.43;;;4.43;;
11510;SDS011;5812;48.864;9.190;2023-01-29T01:02:24;4.33;;;4.33;;
11510;SDS011;5812;48.864;9.190;2023-01-29T01:05:09;4.40;;;4.40;;
11510;SDS011;5812;48.864;9.190;2023-01-29T01:07:42;3.70;;;3.70;;
11510;SDS011;5812;48.864;9.190;2023-01-29T01:10:14;4.63;;;4.63;;
11510;SDS011;5812;48.864;9.190;2023-01-29T01:12:45;4.47;;;4.47;;
11510;SDS011;5812;48.864;9.190;2023-01-29T01:15:12;4.40;;;4.40;;
11510;SDS011;5812;48.864;9.190;2023-01-29T01:17:38;4.30;;;4.30;;
11510;SDS011;5812;48.864;9.190;2023-01-29T01:20:03;4.53;;;4.53;;
11510;SDS011;5812;48.864;9.190;2023-01-29T01:22:29;5.30;;;5.30;;
11510;SDS011;5812;48.864;9.190;2023-01-29T01:24:55;4.57;;;4.57;;
11510;SDS011;5812;48.864;9.190;2023-01-29T01:27:21;4.33;;;4.33;;
11510;SDS011;5812;48.864;9.190;2023-01-29T01:29:47;4.40;;;4.40;;
11510;SDS011;5812;48.864;9.190;2023-01-29T01:32:12;4.83;;;4.83;;
11510;SDS011;5812;48.864;9.190;2023-01-29T01:34:38;4.73;;;4.73;;
11510;SDS011;5812;48.864;9.190;2023-01-29T01:37:03;4.67;;;4.67;;
11510;SDS011;5812;48.864;9.190;2023-01-29T01:39:29;4.77;;;4.77;;
11510;SDS011;5812;48.864;9.190;2023-01-29T01:41:55;4.40;;;4.40;;
11510;SDS011;5812;48.864;9.190;2023-01-29T01:47:19;4.63;;;4.63;;
11510;SDS011;5812;48.864;9.190;2023-01-29T01:49:47;4.80;;;4.80;;
11510;SDS011;5812;48.864;9.190;2023-01-29T01:52:13;4.73;;;4.73;;
11510;SDS011;5812;48.864;9.190;2023-01-29T01:54:40;4.77;;;4.77;;
11510;SDS011;5812;48.864;9.190;2023-01-29T01:57:10;4.40;;;4.40;;
11510;SDS011;5812;48.864;9.190;2023-01-29T01:59:40;4.77;;;4.77;;
11510;SDS011;5812;48.864;9.190;2023-01-29T02:02:10;4.10;;;4.10;;
11510;SDS011;5812;48.864;9.190;2023-01-29T02:04:55;4.33;;;4.33;;
11510;SDS011;5812;48.864;9.190;2023-01-29T02:07:40;4.80;;;4.80;;
11510;SDS011;5812;48.864;9.190;2023-01-29T02:10:28;4.43;;;4.43;;
11510;SDS011;5812;48.864;9.190;2023-01-29T02:13:01;4.53;;;4.53;;
11510;SDS011;5812;48.864;9.190;2023-01-29T02:15:29;4.37;;;4.37;;
11510;SDS011;5812;48.864;9.190;2023-01-29T02:17:54;4.50;;;4.50;;
11510;SDS011;5812;48.864;9.190;2023-01-29T02:20:22;4.57;;;4.57;;
11510;SDS011;5812;48.864;9.190;2023-01-29T02:27:59;4.10;;;4.10;;
11510;SDS011;5812;48.864;9.190;2023-01-29T02:30:46;4.70;;;4.70;;
11510;SDS011;5812;48.864;9.190;2023-01-29T02:33:28;4.63;;;4.63;;
11510;SDS011;5812;48.864;9.190;2023-01-29T02:39:14;4.37;;;4.37;;
11510;SDS011;5812;48.864;9.190;2023-01-29T02:42:00;3.83;;;3.83;;
11510;SDS011;5812;48.864;9.190;2023-01-29T02:44:50;4.17;;;4.17;;
11510;SDS011;5812;48.864;9.190;2023-01-29T02:47:30;4.50;;;4.50;;
11510;SDS011;5812;48.864;9.190;2023-01-29T02:52:56;4.67;;;4.67;;
11510;SDS011;5812;48.864;9.190;2023-01-29T02:55:37;4.37;;;4.37;;
11510;SDS011;5812;48.864;9.190;2023-01-29T02:58:44;4.60;;;4.60;;
11510;SDS011;5812;48.864;9.190;2023-01-29T03:01:18;4.50;;;4.50;;
11510;SDS011;5812;48.864;9.190;2023-01-29T03:03:51;4.30;;;4.30;;
11510;SDS011;5812;48.864;9.190;2023-01-29T03:06:21;4.60;;;4.60;;
11510;SDS011;5812;48.864;9.190;2023-01-29T03:08:51;4.10;;;4.10;;
11510;SDS011;5812;48.864;9.190;2023-01-29T03:11:39;4.60;;;4.60;;
11510;SDS011;5812;48.864;9.190;2023-01-29T03:14:30;4.30;;;4.30;;
11510;SDS011;5812;48.864;9.190;2023-01-29T03:17:23;3.93;;;3.93;;
11510;SDS011;5812;48.864;9.190;2023-01-29T03:19:55;5.10;;;5.10;;
11510;SDS011;5812;48.864;9.190;2023-01-29T03:22:22;4.70;;;4.70;;
11510;SDS011;5812;48.864;9.190;2023-01-29T03:24:56;4.90;;;4.90;;
11510;SDS011;5812;48.864;9.190;2023-01-29T03:27:45;4.60;;;4.60;;
11510;SDS011;5812;48.864;9.190;2023-01-29T03:30:42;3.87;;;3.87;;
11510;SDS011;5812;48.864;9.190;2023-01-29T03:33:31;4.43;;;4.43;;
11510;SDS011;5812;48.864;9.190;2023-01-29T03:36:05;4.60;;;4.60;;
11510;SDS011;5812;48.864;9.190;2023-01-29T03:38:45;4.57;;;4.57;;
11510;SDS011;5812;48.864;9.190;2023-01-29T03:46:54;4.60;;;4.60;;
11510;SDS011;5812;48.864;9.190;2023-01-29T03:49:35;4.57;;;4.57;;
11510;SDS011;5812;48.864;9.190;2023-01-29T03:52:14;5.03;;;5.03;;
11510;SDS011;5812;48.864;9.190;2023-01-29T03:57:50;4.83;;;4.83;;
11510;SDS011;5812;48.864;9.190;2023-01-29T04:00:44;4.87;;;4.87;;
11510;SDS011;5812;48.864;9.190;2023-01-29T04:03:20;4.97;;;4.97;;
11510;SDS011;5812;48.864;9.190;2023-01-29T04:05:55;4.47;;;4.47;;
11510;SDS011;5812;48.864;9.190;2023-01-29T04:08:29;4.33;;;4.33;;
11510;SDS011;5812;48.864;9.190;2023-01-29T04:11:01;4.87;;;4.87;;
11510;SDS011;5812;48.864;9.190;2023-01-29T04:13:32;4.60;;;4.60;;
11510;SDS011;5812;48.864;9.190;2023-01-29T04:15:58;4.63;;;4.63;;
11510;SDS011;5812;48.864;9.190;2023-01-29T04:18:28;4.47;;;4.47;;
11510;SDS011;5812;48.864;9.190;2023-01-29T04:20:53;4.93;;;4.93;;
11510;SDS011;5812;48.864;9.190;2023-01-29T04:23:20;4.70;;;4.70;;
11510;SDS011;5812;48.864;9.190;2023-01-29T04:31:23;5.20;;;5.20;;
11510;SDS011;5812;48.864;9.190;2023-01-29T04:33:59;4.17;;;4.17;;
11510;SDS011;5812;48.864;9.190;2023-01-29T04:36:40;5.33;;;5.33;;
11510;SDS011;5812;48.864;9.190;2023-01-29T04:43:03;4.10;;;4.10;;
11510;SDS011;5812;48.864;9.190;2023-01-29T04:48:45;4.70;;;4.70;;
11510;SDS011;5812;48.864;9.190;2023-01-29T04:54:15;4.43;;;4.43;;
11510;SDS011;5812;48.864;9.190;2023-01-29T05:03:05;4.87;;;4.87;;
11510;SDS011;5812;48.864;9.190;2023-01-29T05:05:33;4.47;;;4.47;;
11510;SDS011;5812;48.864;9.190;2023-01-29T05:08:00;4.63;;;4.63;;
11510;SDS011;5812;48.864;9.190;2023-01-29T05:10:28;5.27;;;5.27;;
11510;SDS011;5812;48.864;9.190;2023-01-29T05:12:56;4.70;;;4.70;;
11510;SDS011;5812;48.864;9.190;2023-01-29T05:15:29;4.80;;;4.80;;
11510;SDS011;5812;48.864;9.190;2023-01-29T05:17:59;4.70;;;4.70;;
11510;SDS011;5812;48.864;9.190;2023-01-29T05:20:26;4.17;;;4.17;;
11510;SDS011;5812;48.864;9.190;2023-01-29T05:22:56;4.47;;;4.47;;
11510;SDS011;5812;48.864;9.190;2023-01-29T05:25:23;4.50;;;4.50;;
11510;SDS011;5812;48.864;9.190;2023-01-29T05:27:51;4.57;;;4.57;;
11510;SDS011;5812;48.864;9.190;2023-01-29T05:30:35;3.90;;;3.90;;
11510;SDS011;5812;48.864;9.190;2023-01-29T05:33:03;4.80;;;4.80;;
11510;SDS011;5812;48.864;9.190;2023-01-29T05:35:29;4.73;;;4.73;;
11510;SDS011;5812;48.864;9.190;2023-01-29T05:37:55;4.37;;;4.37;;
11510;SDS011;5812;48.864;9.190;2023-01-29T05:40:21;5.03;;;5.03;;
11510;SDS011;5812;48.864;9.190;2023-01-29T05:42:48;4.53;;;4.53;;
11510;SDS011;5812;48.864;9.190;2023-01-29T05:45:14;4.33;;;4.33;;
11510;SDS011;5812;48.864;9.190;2023-01-29T05:47:41;4.83;;;4.83;;
11510;SDS011;5812;48.864;9.190;2023-01-29T05:50:06;5.30;;;5.30;;
11510;SDS011;5812;48.864;9.190;2023-01-29T05:52:32;4.93;;;4.93;;
11510;SDS011;5812;48.864;9.190;2023-01-29T05:54:58;4.67;;;4.67;;
11510;SDS011;5812;48.864;9.190;2023-01-29T05:57:23;4.33;;;4.33;;
11510;SDS011;5812;48.864;9.190;2023-01-29T05:59:49;5.23;;;5.23;;
11510;SDS011;5812;48.864;9.190;2023-01-29T06:02:15;4.47;;;4.47;;
11510;SDS011;5812;48.864;9.190;2023-01-29T06:04:40;5.43;;;5.43;;
11510;SDS011;5812;48.864;9.190;2023-01-29T06:07:06;4.07;;;4.07;;
11510;SDS011;5812;48.864;9.190;2023-01-29T06:09:31;4.73;;;4.73;;
11510;SDS011;5812;48.864;9.190;2023-01-29T06:11:57;4.47;;;4.47;;
11510;SDS011;5812;48.864;9.190;2023-01-29T06:14:22;5.10;;;5.10;;
11510;SDS011;5812;48.864;9.190;2023-01-29T06:16:48;5.60;;;5.60;;
11510;SDS011;5812;48.864;9.190;2023-01-29T06:19:13;5.93;;;5.93;;
11510;SDS011;5812;48.864;9.190;2023-01-29T06:21:39;5.17;;;5.17;;
11510;SDS011;5812;48.864;9.190;2023-01-29T06:24:05;5.43;;;5.43;;
11510;SDS011;5812;48.864;9.190;2023-01-29T06:26:31;5.27;;;5.27;;
11510;SDS011;5812;48.864;9.190;2023-01-29T06:28:56;5.20;;;5.20;;
11510;SDS011;5812;48.864;9.190;2023-01-29T06:31:22;4.97;;;4.97;;
11510;SDS011;5812;48.864;9.190;2023-01-29T06:33:47;5.00;;;5.00;;
11510;SDS011;5812;48.864;9.190;2023-01-29T06:36:13;5.30;;;5.30;;
11510;SDS011;5812;48.864;9.190;2023-01-29T06:38:39;5.77;;;5.77;;
11510;SDS011;5812;48.864;9.190;2023-01-29T06:41:08;4.43;;;4.43;;
11510;SDS011;5812;48.864;9.190;2023-01-29T06:43:35;4.63;;;4.63;;
11510;SDS011;5812;48.864;9.190;2023-01-29T06:46:01;4.87;;;4.87;;
11510;SDS011;5812;48.864;9.190;2023-01-29T06:48:27;4.80;;;4.80;;
11510;SDS011;5812;48.864;9.190;2023-01-29T06:50:52;4.90;;;4.90;;
11510;SDS011;5812;48.864;9.190;2023-01-29T06:53:19;5.27;;;5.27;;
11510;SDS011;5812;48.864;9.190;2023-01-29T06:55:51;5.43;;;5.43;;
11510;SDS011;5812;48.864;9.190;2023-01-29T06:58:17;4.63;;;4.63;;
11510;SDS011;5812;48.864;9.190;2023-01-29T07:00:42;4.67;;;4.67;;
11510;SDS011;5812;48.864;9.190;2023-01-29T07:03:08;4.97;;;4.97;;
11510;SDS011;5812;48.864;9.190;2023-01-29T07:05:35;5.97;;;5.97;;
11510;SDS011;5812;48.864;9.190;2023-01-29T07:08:01;5.30;;;5.30;;
11510;SDS011;5812;48.864;9.190;2023-01-29T07:10:26;5.57;;;5.57;;
11510;SDS011;5812;48.864;9.190;2023-01-29T07:12:52;4.90;;;4.90;;
11510;SDS011;5812;48.864;9.190;2023-01-29T07:15:17;4.97;;;4.97;;
11510;SDS011;5812;48.864;9.190;2023-01-29T07:20:40;5.50;;;5.50;;
11510;SDS011;5812;48.864;9.190;2023-01-29T07:23:10;5.33;;;5.33;;
11510;SDS011;5812;48.864;9.190;2023-01-29T07:25:37;5.07;;;5.07;;
11510;SDS011;5812;48.864;9.190;2023-01-29T07:28:03;4.60;;;4.60;;
11510;SDS011;5812;48.864;9.190;2023-01-29T07:30:29;5.30;;;5.30;;
11510;SDS011;5812;48.864;9.190;2023-01-29T07:32:56;4.83;;;4.83;;
11510;SDS011;5812;48.864;9.190;2023-01-29T07:35:27;5.40;;;5.40;;
11510;SDS011;5812;48.864;9.190;2023-01-29T07:37:53;4.83;;;4.83;;
11510;SDS011;5812;48.864;9.190;2023-01-29T07:40:18;5.33;;;5.33;;
11510;SDS011;5812;48.864;9.190;2023-01-29T07:42:44;5.47;;;5.47;;
11510;SDS011;5812;48.864;9.190;2023-01-29T07:45:11;5.00;;;5.00;;
11510;SDS011;5812;48.864;9.190;2023-01-29T07:47:37;5.23;;;5.23;;
11510;SDS011;5812;48.864;9.190;2023-01-29T07:50:03;5.00;;;5.00;;
11510;SDS011;5812;48.864;9.190;2023-01-29T07:52:29;4.70;;;4.70;;
11510;SDS011;5812;48.864;9.190;2023-01-29T07:54:56;5.03;;;5.03;;
11510;SDS011;5812;48.864;9.190;2023-01-29T07:57:22;5.03;;;5.03;;
11510;SDS011;5812;48.864;9.190;2023-01-29T07:59:47;4.53;;;4.53;;
11510;SDS011;5812;48.864;9.190;2023-01-29T08:02:13;4.50;;;4.50;;
11510;SDS011;5812;48.864;9.190;2023-01-29T08:04:39;5.40;;;5.40;;
11510;SDS011;5812;48.864;9.190;2023-01-29T08:07:04;5.27;;;5.27;;
11510;SDS011;5812;48.864;9.190;2023-01-29T08:09:30;4.90;;;4.90;;
11510;SDS011;5812;48.864;9.190;2023-01-29T08:11:56;5.30;;;5.30;;
11510;SDS011;5812;48.864;9.190;2023-01-29T08:14:22;5.00;;;5.00;;
11510;SDS011;5812;48.864;9.190;2023-01-29T08:16:48;5.90;;;5.90;;
11510;SDS011;5812;48.864;9.190;2023-01-29T08:19:15;6.03;;;6.03;;
11510;SDS011;5812;48.864;9.190;2023-01-29T08:21:40;5.27;;;5.27;;
11510;SDS011;5812;48.864;9.190;2023-01-29T08:24:06;4.80;;;4.80;;
11510;SDS011;5812;48.864;9.190;2023-01-29T08:26:32;5.20;;;5.20;;
11510;SDS011;5812;48.864;9.190;2023-01-29T08:28:57;4.57;;;4.57;;
11510;SDS011;5812;48.864;9.190;2023-01-29T08:31:23;5.70;;;5.70;;
11510;SDS011;5812;48.864;9.190;2023-01-29T08:33:48;4.90;;;4.90;;
11510;SDS011;5812;48.864;9.190;2023-01-29T08:36:14;5.03;;;5.03;;
11510;SDS011;5812;48.864;9.190;2023-01-29T08:38:40;5.40;;;5.40;;
11510;SDS011;5812;48.864;9.190;2023-01-29T08:41:06;5.27;;;5.27;;
11510;SDS011;5812;48.864;9.190;2023-01-29T08:43:32;4.83;;;4.83;;
11510;SDS011;5812;48.864;9.190;2023-01-29T08:46:01;4.87;;;4.87;;
11510;SDS011;5812;48.864;9.190;2023-01-29T08:48:28;4.73;;;4.73;;
11510;SDS011;5812;48.864;9.190;2023-01-29T08:50:56;5.10;;;5.10;;
11510;SDS011;5812;48.864;9.190;2023-01-29T08:53:23;6.57;;;6.57;;
11510;SDS011;5812;48.864;9.190;2023-01-29T08:55:49;6.60;;;6.60;;
11510;SDS011;5812;48.864;9.190;2023-01-29T08:58:16;5.73;;;5.73;;
11510;SDS011;5812;48.864;9.190;2023-01-29T09:00:41;5.10;;;5.10;;
11510;SDS011;5812;48.864;9.190;2023-01-29T09:03:07;5.27;;;5.27;;
11510;SDS011;5812;48.864;9.190;2023-01-29T09:05:34;5.23;;;5.23;;
11510;SDS011;5812;48.864;9.190;2023-01-29T09:08:00;5.60;;;5.60;;
11510;SDS011;5812;48.864;9.190;2023-01-29T09:10:26;5.73;;;5.73;;
11510;SDS011;5812;48.864;9.190;2023-01-29T09:12:52;5.47;;;5.47;;
11510;SDS011;5812;48.864;9.190;2023-01-29T09:15:17;5.70;;;5.70;;
11510;SDS011;5812;48.864;9.190;2023-01-29T09:17:43;4.93;;;4.93;;
11510;SDS011;5812;48.864;9.190;2023-01-29T09:20:09;5.70;;;5.70;;
11510;SDS011;5812;48.864;9.190;2023-01-29T09:22:35;5.30;;;5.30;;
11510;SDS011;5812;48.864;9.190;2023-01-29T09:25:00;5.30;;;5.30;;
11510;SDS011;5812;48.864;9.190;2023-01-29T09:27:26;5.70;;;5.70;;
11510;SDS011;5812;48.864;9.190;2023-01-29T09:29:52;5.57;;;5.57;;
11510;SDS011;5812;48.864;9.190;2023-01-29T09:32:17;5.10;;;5.10;;
11510;SDS011;5812;48.864;9.190;2023-01-29T09:34:43;4.83;;;4.83;;
11510;SDS011;5812;48.864;9.190;2023-01-29T09:37:09;5.00;;;5.00;;
11510;SDS011;5812;48.864;9.190;2023-01-29T09:39:34;5.17;;;5.17;;
11510;SDS011;5812;48.864;9.190;2023-01-29T09:47:22;4.93;;;4.93;;
11510;SDS011;5812;48.864;9.190;2023-01-29T09:50:12;5.57;;;5.57;;
11510;SDS011;5812;48.864;9.190;2023-01-29T09:52:45;5.43;;;5.43;;
11510;SDS011;5812;48.864;9.190;2023-01-29T09:57:53;5.10;;;5.10;;
11510;SDS011;5812;48.864;9.190;2023-01-29T10:00:23;5.37;;;5.37;;
11510;SDS011;5812;48.864;9.190;2023-01-29T10:03:13;5.27;;;5.27;;
11510;SDS011;5812;48.864;9.190;2023-01-29T10:06:04;5.27;;;5.27;;
11510;SDS011;5812;48.864;9.190;2023-01-29T10:20:10;5.60;;;5.60;;
11510;SDS011;5812;48.864;9.190;2023-01-29T10:25:42;5.47;;;5.47;;
11510;SDS011;5812;48.864;9.190;2023-01-29T10:28:14;4.70;;;4.70;;
11510;SDS011;5812;48.864;9.190;2023-01-29T10:30:59;5.23;;;5.23;;
11510;SDS011;5812;48.864;9.190;2023-01-29T10:33:32;5.60;;;5.60;;
11510;SDS011;5812;48.864;9.190;2023-01-29T10:36:07;5.60;;;5.60;;
11510;SDS011;5812;48.864;9.190;2023-01-29T10:38:47;6.03;;;6.03;;
11510;SDS011;5812;48.864;9.190;2023-01-29T10:41:35;5.60;;;5.60;;
11510;SDS011;5812;48.864;9.190;2023-01-29T10:52:15;5.77;;;5.77;;
11510;SDS011;5812;48.864;9.190;2023-01-29T11:00:18;5.87;;;5.87;;
11510;SDS011;5812;48.864;9.190;2023-01-29T11:02:50;5.83;;;5.83;;
11510;SDS011;5812;48.864;9.190;2023-01-29T11:06:00;6.50;;;6.50;;
11510;SDS011;5812;48.864;9.190;2023-01-29T11:08:09;5.97;;;5.97;;
11510;SDS011;5812;48.864;9.190;2023-01-29T11:10:40;6.10;;;6.10;;
11510;SDS011;5812;48.864;9.190;2023-01-29T11:13:18;6.17;;;6.17;;
11510;SDS011;5812;48.864;9.190;2023-01-29T11:15:46;6.03;;;6.03;;
11510;SDS011;5812;48.864;9.190;2023-01-29T11:18:15;5.77;;;5.77;;
11510;SDS011;5812;48.864;9.190;2023-01-29T11:20:42;6.17;;;6.17;;
11510;SDS011;5812;48.864;9.190;2023-01-29T11:23:22;6.80;;;6.80;;
11510;SDS011;5812;48.864;9.190;2023-01-29T11:25:51;6.50;;;6.50;;
11510;SDS011;5812;48.864;9.190;2023-01-29T11:28:33;6.60;;;6.60;;
11510;SDS011;5812;48.864;9.190;2023-01-29T11:31:17;6.53;;;6.53;;
11510;SDS011;5812;48.864;9.190;2023-01-29T11:33:46;6.17;;;6.17;;
11510;SDS011;5812;48.864;9.190;2023-01-29T11:41:47;7.37;;;7.37;;
11510;SDS011;5812;48.864;9.190;2023-01-29T11:44:20;7.00;;;7.00;;
11510;SDS011;5812;48.864;9.190;2023-01-29T11:46:51;7.23;;;7.23;;
11510;SDS011;5812;48.864;9.190;2023-01-29T11:49:21;6.77;;;6.77;;
11510;SDS011;5812;48.864;9.190;2023-01-29T11:51:56;6.23;;;6.23;;
11510;SDS011;5812;48.864;9.190;2023-01-29T11:54:26;7.03;;;7.03;;
11510;SDS011;5812;48.864;9.190;2023-01-29T11:56:55;7.40;;;7.40;;
11510;SDS011;5812;48.864;9.190;2023-01-29T11:59:36;6.73;;;6.73;;
11510;SDS011;5812;48.864;9.190;2023-01-29T12:02:33;8.47;;;8.47;;
11510;SDS011;5812;48.864;9.190;2023-01-29T12:05:13;7.43;;;7.43;;
11510;SDS011;5812;48.864;9.190;2023-01-29T12:07:41;7.50;;;7.50;;
11510;SDS011;5812;48.864;9.190;2023-01-29T12:10:29;7.10;;;7.10;;
11510;SDS011;5812;48.864;9.190;2023-01-29T12:15:43;7.00;;;7.00;;
11510;SDS011;5812;48.864;9.190;2023-01-29T12:18:15;7.30;;;7.30;;
11510;SDS011;5812;48.864;9.190;2023-01-29T12:20:54;7.17;;;7.17;;
11510;SDS011;5812;48.864;9.190;2023-01-29T12:23:32;7.33;;;7.33;;
11510;SDS011;5812;48.864;9.190;2023-01-29T12:26:15;7.43;;;7.43;;
11510;SDS011;5812;48.864;9.190;2023-01-29T12:28:47;6.80;;;6.80;;
11510;SDS011;5812;48.864;9.190;2023-01-29T12:31:43;7.13;;;7.13;;
11510;SDS011;5812;48.864;9.190;2023-01-29T12:37:33;7.30;;;7.30;;
11510;SDS011;5812;48.864;9.190;2023-01-29T12:40:10;7.47;;;7.47;;
11510;SDS011;5812;48.864;9.190;2023-01-29T12:42:38;6.40;;;6.40;;
11510;SDS011;5812;48.864;9.190;2023-01-29T12:45:07;6.37;;;6.37;;
11510;SDS011;5812;48.864;9.190;2023-01-29T12:47:41;6.60;;;6.60;;
11510;SDS011;5812;48.864;9.190;2023-01-29T12:50:18;6.80;;;6.80;;
11510;SDS011;5812;48.864;9.190;2023-01-29T12:53:05;7.10;;;7.10;;
11510;SDS011;5812;48.864;9.190;2023-01-29T12:55:45;7.00;;;7.00;;
11510;SDS011;5812;48.864;9.190;2023-01-29T12:58:24;7.47;;;7.47;;
11510;SDS011;5812;48.864;9.190;2023-01-29T13:06:25;7.53;;;7.53;;
11510;SDS011;5812;48.864;9.190;2023-01-29T13:09:05;7.33;;;7.33;;
11510;SDS011;5812;48.864;9.190;2023-01-29T13:11:36;7.47;;;7.47;;
11510;SDS011;5812;48.864;9.190;2023-01-29T13:14:18;7.47;;;7.47;;
11510;SDS011;5812;48.864;9.190;2023-01-29T13:16:49;7.50;;;7.50;;
11510;SDS011;5812;48.864;9.190;2023-01-29T13:19:30;7.30;;;7.30;;
11510;SDS011;5812;48.864;9.190;2023-01-29T13:22:01;7.93;;;7.93;;
11510;SDS011;5812;48.864;9.190;2023-01-29T13:24:32;7.20;;;7.20;;
11510;SDS011;5812;48.864;9.190;2023-01-29T13:27:03;6.70;;;6.70;;
11510;SDS011;5812;48.864;9.190;2023-01-29T13:29:29;7.37;;;7.37;;
11510;SDS011;5812;48.864;9.190;2023-01-29T13:31:55;7.17;;;7.17;;
11510;SDS011;5812;48.864;9.190;2023-01-29T13:34:30;7.73;;;7.73;;
11510;SDS011;5812;48.864;9.190;2023-01-29T13:37:18;7.20;;;7.20;;
11510;SDS011;5812;48.864;9.190;2023-01-29T13:39:55;7.83;;;7.83;;
11510;SDS011;5812;48.864;9.190;2023-01-29T13:42:24;7.83;;;7.83;;
11510;SDS011;5812;48.864;9.190;2023-01-29T13:45:00;7.87;;;7.87;;
11510;SDS011;5812;48.864;9.190;2023-01-29T13:47:30;7.93;;;7.93;;
11510;SDS011;5812;48.864;9.190;2023-01-29T13:50:02;7.87;;;7.87;;
11510;SDS011;5812;48.864;9.190;2023-01-29T13:52:41;6.93;;;6.93;;
11510;SDS011;5812;48.864;9.190;2023-01-29T14:08:35;7.80;;;7.80;;
11510;SDS011;5812;48.864;9.190;2023-01-29T14:13:40;7.07;;;7.07;;
11510;SDS011;5812;48.864;9.190;2023-01-29T14:18:45;7.67;;;7.67;;
11510;SDS011;5812;48.864;9.190;2023-01-29T14:21:20;8.00;;;8.00;;
11510;SDS011;5812;48.864;9.190;2023-01-29T14:23:52;7.53;;;7.53;;
11510;SDS011;5812;48.864;9.190;2023-01-29T14:26:25;8.03;;;8.03;;
11510;SDS011;5812;48.864;9.190;2023-01-29T14:34:19;7.83;;;7.83;;
11510;SDS011;5812;48.864;9.190;2023-01-29T14:37:03;7.63;;;7.63;;
11510;SDS011;5812;48.864;9.190;2023-01-29T14:39:50;8.37;;;8.37;;
11510;SDS011;5812;48.864;9.190;2023-01-29T14:44:54;7.60;;;7.60;;
11510;SDS011;5812;48.864;9.190;2023-01-29T14:49:58;8.00;;;8.00;;
11510;SDS011;5812;48.864;9.190;2023-01-29T14:52:28;7.90;;;7.90;;
11510;SDS011;5812;48.864;9.190;2023-01-29T14:55:14;7.60;;;7.60;;
11510;SDS011;5812;48.864;9.190;2023-01-29T14:57:51;7.77;;;7.77;;
11510;SDS011;5812;48.864;9.190;2023-01-29T15:00:27;7.93;;;7.93;;
11510;SDS011;5812;48.864;9.190;2023-01-29T15:02:55;8.23;;;8.23;;
11510;SDS011;5812;48.864;9.190;2023-01-29T15:05:24;7.60;;;7.60;;
11510;SDS011;5812;48.864;9.190;2023-01-29T15:08:12;7.53;;;7.53;;
11510;SDS011;5812;48.864;9.190;2023-01-29T15:10:51;8.27;;;8.27;;
11510;SDS011;5812;48.864;9.190;2023-01-29T15:14:01;8.07;;;8.07;;
11510;SDS011;5812;48.864;9.190;2023-01-29T15:16:41;7.80;;;7.80;;
11510;SDS011;5812;48.864;9.190;2023-01-29T15:19:27;8.87;;;8.87;;
11510;SDS011;5812;48.864;9.190;2023-01-29T15:22:00;8.13;;;8.13;;
11510;SDS011;5812;48.864;9.190;2023-01-29T15:24:27;7.97;;;7.97;;
11510;SDS011;5812;48.864;9.190;2023-01-29T15:26:52;7.27;;;7.27;;
11510;SDS011;5812;48.864;9.190;2023-01-29T15:29:22;7.83;;;7.83;;
11510;SDS011;5812;48.864;9.190;2023-01-29T15:31:49;7.60;;;7.60;;
11510;SDS011;5812;48.864;9.190;2023-01-29T15:34:15;7.63;;;7.63;;
11510;SDS011;5812;48.864;9.190;2023-01-29T15:36:41;8.10;;;8.10;;
11510;SDS011;5812;48.864;9.190;2023-01-29T15:39:17;8.40;;;8.40;;
11510;SDS011;5812;48.864;9.190;2023-01-29T15:41:45;7.90;;;7.90;;
11510;SDS011;5812;48.864;9.190;2023-01-29T15:44:12;7.33;;;7.33;;
11510;SDS011;5812;48.864;9.190;2023-01-29T15:46:43;7.53;;;7.53;;
11510;SDS011;5812;48.864;9.190;2023-01-29T15:49:30;8.10;;;8.10;;
11510;SDS011;5812;48.864;9.190;2023-01-29T15:52:00;7.90;;;7.90;;
11510;SDS011;5812;48.864;9.190;2023-01-29T15:54:29;8.17;;;8.17;;
11510;SDS011;5812;48.864;9.190;2023-01-29T15:56:57;8.00;;;8.00;;
11510;SDS011;5812;48.864;9.190;2023-01-29T15:59:24;8.37;;;8.37;;
11510;SDS011;5812;48.864;9.190;2023-01-29T16:01:53;8.03;;;8.03;;
11510;SDS011;5812;48.864;9.190;2023-01-29T16:04:22;8.27;;;8.27;;
11510;SDS011;5812;48.864;9.190;2023-01-29T16:06:54;7.37;;;7.37;;
11510;SDS011;5812;48.864;9.190;2023-01-29T16:09:22;7.73;;;7.73;;
11510;SDS011;5812;48.864;9.190;2023-01-29T16:11:50;7.93;;;7.93;;
11510;SDS011;5812;48.864;9.190;2023-01-29T16:14:19;8.37;;;8.37;;
11510;SDS011;5812;48.864;9.190;2023-01-29T16:16:47;8.67;;;8.67;;
11510;SDS011;5812;48.864;9.190;2023-01-29T16:19:23;8.70;;;8.70;;
11510;SDS011;5812;48.864;9.190;2023-01-29T16:24:23;8.47;;;8.47;;
11510;SDS011;5812;48.864;9.190;2023-01-29T16:26:50;8.27;;;8.27;;
11510;SDS011;5812;48.864;9.190;2023-01-29T16:29:22;9.67;;;9.67;;
11510;SDS011;5812;48.864;9.190;2023-01-29T16:31:54;8.40;;;8.40;;
11510;SDS011;5812;48.864;9.190;2023-01-29T16:37:02;8.43;;;8.43;;
11510;SDS011;5812;48.864;9.190;2023-01-29T16:39:49;7.90;;;7.90;;
11510;SDS011;5812;48.864;9.190;2023-01-29T16:44:52;7.57;;;7.57;;
11510;SDS011;5812;48.864;9.190;2023-01-29T16:47:35;7.33;;;7.33;;
11510;SDS011;5812;48.864;9.190;2023-01-29T16:55:46;7.23;;;7.23;;
11510;SDS011;5812;48.864;9.190;2023-01-29T17:00:51;7.87;;;7.87;;
11510;SDS011;5812;48.864;9.190;2023-01-29T17:03:18;8.33;;;8.33;;
11510;SDS011;5812;48.864;9.190;2023-01-29T17:05:45;7.03;;;7.03;;
11510;SDS011;5812;48.864;9.190;2023-01-29T17:08:16;7.10;;;7.10;;
11510;SDS011;5812;48.864;9.190;2023-01-29T17:10:56;8.27;;;8.27;;
11510;SDS011;5812;48.864;9.190;2023-01-29T17:13:25;7.67;;;7.67;;
11510;SDS011;5812;48.864;9.190;2023-01-29T17:15:58;7.53;;;7.53;;
11510;SDS011;5812;48.864;9.190;2023-01-29T17:18:26;7.00;;;7.00;;
11510;SDS011;5812;48.864;9.190;2023-01-29T17:20:52;7.63;;;7.63;;
11510;SDS011;5812;48.864;9.190;2023-01-29T17:23:18;7.83;;;7.83;;
11510;SDS011;5812;48.864;9.190;2023-01-29T17:25:44;8.40;;;8.40;;
11510;SDS011;5812;48.864;9.190;2023-01-29T17:28:12;7.93;;;7.93;;
11510;SDS011;5812;48.864;9.190;2023-01-29T17:30:38;8.17;;;8.17;;
11510;SDS011;5812;48.864;9.190;2023-01-29T17:33:14;7.40;;;7.40;;
11510;SDS011;5812;48.864;9.190;2023-01-29T17:35:42;7.30;;;7.30;;
11510;SDS011;5812;48.864;9.190;2023-01-29T17:38:12;6.50;;;6.50;;
11510;SDS011;5812;48.864;9.190;2023-01-29T17:40:46;7.20;;;7.20;;
11510;SDS011;5812;48.864;9.190;2023-01-29T17:43:14;7.10;;;7.10;;
11510;SDS011;5812;48.864;9.190;2023-01-29T17:45:39;6.90;;;6.90;;
11510;SDS011;5812;48.864;9.190;2023-01-29T17:48:10;6.57;;;6.57;;
11510;SDS011;5812;48.864;9.190;2023-01-29T17:50:39;7.17;;;7.17;;